This is the latest recevied weather packets stored in our database for station/object K4DNM. If no packets are shown the sender has not sent any weather packets the latest 10 day(s).
| Time | Temp. | Humidity | Pressure | Rain* | Wind** | Luminosity | Snow |
|---|---|---|---|---|---|---|---|
| 1777900793 | 17.22° C | 69% | 1016.2 hPa | 0 mm | - | 481 W/m² | - |
| 1777900491 | 17.22° C | 69% | 1016.2 hPa | 0 mm | - | 462 W/m² | - |
| 1777900189 | 17.22° C | 70% | 1016.3 hPa | 0 mm | - | 444 W/m² | - |
| 1777899884 | 16.67° C | 72% | 1016.2 hPa | 0 mm | - | 425 W/m² | - |
| 1777899583 | 16.11° C | 74% | 1016.3 hPa | 0 mm | - | 407 W/m² | - |
| 1777899279 | 15.56° C | 77% | 1016.2 hPa | 0 mm | - | 389 W/m² | - |
| 1777898979 | 15° C | 79% | 1016.2 hPa | 0 mm | - | 370 W/m² | - |
| 1777898680 | 15° C | 77% | 1016.3 hPa | 0 mm | - | 353 W/m² | - |
| 1777898381 | 15° C | 78% | 1016.3 hPa | 0 mm | - | 326 W/m² | - |
| 1777898140 | 14.44° C | 81% | 1016.4 hPa | 0 mm | - | 298 W/m² | - |
| 1777897780 | 13.89° C | 79% | 1016.3 hPa | 0 mm | - | 279 W/m² | - |
| 1777897479 | 13.89° C | 80% | 1016.3 hPa | 0 mm | - | 261 W/m² | - |
| 1777897242 | 13.33° C | 83% | 1016.5 hPa | 0 mm | - | 244 W/m² | - |
| 1777896940 | 13.33° C | 83% | 1016.5 hPa | 0 mm | - | 228 W/m² | - |
| 1777896580 | 13.33° C | 81% | 1016.5 hPa | 0 mm | - | 212 W/m² | - |
| 1777896278 | 13.33° C | 82% | 1016.5 hPa | 0 mm | - | 196 W/m² | - |
| 1777895976 | 12.78° C | 87% | 1016.5 hPa | 0 mm | - | 181 W/m² | - |
| 1777895676 | 12.22° C | 87% | 1016.5 hPa | 0 mm | - | 166 W/m² | - |
| 1777895377 | 11.11° C | 95% | 1016.6 hPa | 0 mm | - | 151 W/m² | - |
| 1777895075 | 10.56° C | 96% | 1016.6 hPa | 0 mm | - | 136 W/m² | - |
| 1777894777 | 10° C | 97% | 1016.7 hPa | 0 mm | - | 117 W/m² | - |
| 1777894472 | 9.44° C | 98% | 1016.7 hPa | 0 mm | - | 107 W/m² | - |
| 1777894174 | 8.89° C | 98% | 1016.6 hPa | 0 mm | - | 95 W/m² | - |
| 1777893873 | 8.33° C | 98% | 1016.6 hPa | 0 mm | - | 80 W/m² | - |
| 1777893578 | 8.33° C | 98% | 1016.6 hPa | 0 mm | - | 69 W/m² | - |
* Rain latest hour (hover to see other rain measurements)
** Current wind speed in m/s (hover to see current wind gust speed)